sensor_id;sensor_type;location;lat;lon;timestamp;P1;P2;P0
67892;PMS7003;54688;52.376;16.744;2022-10-26T00:01:24;21;18;
67892;PMS7003;54688;52.376;16.744;2022-10-26T00:04:26;17;14;
67892;PMS7003;54688;52.376;16.744;2022-10-26T00:07:28;19;17;
67892;PMS7003;54688;52.376;16.744;2022-10-26T00:10:33;18;15;
67892;PMS7003;54688;52.376;16.744;2022-10-26T00:13:35;24;21;
67892;PMS7003;54688;52.376;16.744;2022-10-26T00:16:40;20;18;
67892;PMS7003;54688;52.376;16.744;2022-10-26T00:19:42;27;18;
67892;PMS7003;54688;52.376;16.744;2022-10-26T00:22:44;23;18;
67892;PMS7003;54688;52.376;16.744;2022-10-26T00:25:53;20;17;
67892;PMS7003;54688;52.376;16.744;2022-10-26T00:28:55;20;18;
67892;PMS7003;54688;52.376;16.744;2022-10-26T00:31:57;22;19;
67892;PMS7003;54688;52.376;16.744;2022-10-26T00:34:59;18;13;
67892;PMS7003;54688;52.376;16.744;2022-10-26T00:38:01;17;14;
67892;PMS7003;54688;52.376;16.744;2022-10-26T00:41:04;18;15;
67892;PMS7003;54688;52.376;16.744;2022-10-26T00:46:16;14;12;
67892;PMS7003;54688;52.376;16.744;2022-10-26T00:49:19;13;12;
67892;PMS7003;54688;52.376;16.744;2022-10-26T00:52:22;17;14;
67892;PMS7003;54688;52.376;16.744;2022-10-26T00:55:28;16;14;
67892;PMS7003;54688;52.376;16.744;2022-10-26T00:58:34;17;15;
67892;PMS7003;54688;52.376;16.744;2022-10-26T01:01:39;20;14;
67892;PMS7003;54688;52.376;16.744;2022-10-26T01:04:44;19;18;
67892;PMS7003;54688;52.376;16.744;2022-10-26T01:07:46;19;18;
67892;PMS7003;54688;52.376;16.744;2022-10-26T01:10:48;21;16;
67892;PMS7003;54688;52.376;16.744;2022-10-26T01:13:52;15;14;
67892;PMS7003;54688;52.376;16.744;2022-10-26T01:17:01;22;16;
67892;PMS7003;54688;52.376;16.744;2022-10-26T01:20:25;19;15;
67892;PMS7003;54688;52.376;16.744;2022-10-26T01:23:33;23;16;
67892;PMS7003;54688;52.376;16.744;2022-10-26T01:26:56;20;14;
67892;PMS7003;54688;52.376;16.744;2022-10-26T01:30:13;20;15;
67892;PMS7003;54688;52.376;16.744;2022-10-26T01:33:20;15;14;
67892;PMS7003;54688;52.376;16.744;2022-10-26T01:36:30;19;16;
67892;PMS7003;54688;52.376;16.744;2022-10-26T01:39:38;24;20;
67892;PMS7003;54688;52.376;16.744;2022-10-26T01:42:43;20;14;
67892;PMS7003;54688;52.376;16.744;2022-10-26T01:45:47;19;19;
67892;PMS7003;54688;52.376;16.744;2022-10-26T01:48:54;19;18;
67892;PMS7003;54688;52.376;16.744;2022-10-26T01:51:58;19;17;
67892;PMS7003;54688;52.376;16.744;2022-10-26T01:55:00;17;14;
67892;PMS7003;54688;52.376;16.744;2022-10-26T01:58:12;24;16;
67892;PMS7003;54688;52.376;16.744;2022-10-26T02:01:29;22;15;
67892;PMS7003;54688;52.376;16.744;2022-10-26T02:04:40;21;17;
67892;PMS7003;54688;52.376;16.744;2022-10-26T02:07:55;15;14;
67892;PMS7003;54688;52.376;16.744;2022-10-26T02:11:06;21;17;
67892;PMS7003;54688;52.376;16.744;2022-10-26T02:14:13;18;16;
67892;PMS7003;54688;52.376;16.744;2022-10-26T02:17:26;29;26;
67892;PMS7003;54688;52.376;16.744;2022-10-26T02:20:33;23;22;
67892;PMS7003;54688;52.376;16.744;2022-10-26T02:23:37;22;21;
67892;PMS7003;54688;52.376;16.744;2022-10-26T02:29:41;21;19;
67892;PMS7003;54688;52.376;16.744;2022-10-26T02:32:47;26;15;
67892;PMS7003;54688;52.376;16.744;2022-10-26T02:35:52;14;13;
67892;PMS7003;54688;52.376;16.744;2022-10-26T02:38:56;17;15;
67892;PMS7003;54688;52.376;16.744;2022-10-26T02:42:02;20;16;
67892;PMS7003;54688;52.376;16.744;2022-10-26T02:45:10;19;15;
67892;PMS7003;54688;52.376;16.744;2022-10-26T02:48:13;16;15;
67892;PMS7003;54688;52.376;16.744;2022-10-26T02:51:17;17;15;
67892;PMS7003;54688;52.376;16.744;2022-10-26T02:54:25;18;13;
67892;PMS7003;54688;52.376;16.744;2022-10-26T02:57:30;15;12;
67892;PMS7003;54688;52.376;16.744;2022-10-26T03:00:34;18;16;
67892;PMS7003;54688;52.376;16.744;2022-10-26T03:03:36;17;15;
67892;PMS7003;54688;52.376;16.744;2022-10-26T03:06:38;15;14;
67892;PMS7003;54688;52.376;16.744;2022-10-26T03:09:41;14;14;
67892;PMS7003;54688;52.376;16.744;2022-10-26T03:12:43;17;14;
67892;PMS7003;54688;52.376;16.744;2022-10-26T03:15:45;17;14;
67892;PMS7003;54688;52.376;16.744;2022-10-26T03:18:47;15;13;
67892;PMS7003;54688;52.376;16.744;2022-10-26T03:21:49;16;16;
67892;PMS7003;54688;52.376;16.744;2022-10-26T03:24:51;14;13;
67892;PMS7003;54688;52.376;16.744;2022-10-26T03:27:55;15;12;
67892;PMS7003;54688;52.376;16.744;2022-10-26T03:30:57;13;13;
67892;PMS7003;54688;52.376;16.744;2022-10-26T03:34:00;16;11;
67892;PMS7003;54688;52.376;16.744;2022-10-26T03:37:01;15;12;
67892;PMS7003;54688;52.376;16.744;2022-10-26T03:40:05;19;18;
67892;PMS7003;54688;52.376;16.744;2022-10-26T03:43:07;16;13;
67892;PMS7003;54688;52.376;16.744;2022-10-26T03:46:08;27;24;
67892;PMS7003;54688;52.376;16.744;2022-10-26T03:49:10;25;23;
67892;PMS7003;54688;52.376;16.744;2022-10-26T03:52:12;28;25;
67892;PMS7003;54688;52.376;16.744;2022-10-26T03:55:15;31;25;
67892;PMS7003;54688;52.376;16.744;2022-10-26T03:58:18;22;16;
67892;PMS7003;54688;52.376;16.744;2022-10-26T04:01:21;16;14;
67892;PMS7003;54688;52.376;16.744;2022-10-26T04:04:23;25;20;
67892;PMS7003;54688;52.376;16.744;2022-10-26T04:07:25;22;17;
67892;PMS7003;54688;52.376;16.744;2022-10-26T04:10:28;23;18;
67892;PMS7003;54688;52.376;16.744;2022-10-26T04:13:31;17;15;
67892;PMS7003;54688;52.376;16.744;2022-10-26T04:16:33;16;15;
67892;PMS7003;54688;52.376;16.744;2022-10-26T04:19:36;16;14;
67892;PMS7003;54688;52.376;16.744;2022-10-26T04:22:38;15;13;
67892;PMS7003;54688;52.376;16.744;2022-10-26T04:25:42;13;13;
67892;PMS7003;54688;52.376;16.744;2022-10-26T04:28:44;15;12;
67892;PMS7003;54688;52.376;16.744;2022-10-26T04:31:46;13;11;
67892;PMS7003;54688;52.376;16.744;2022-10-26T04:37:46;15;12;
67892;PMS7003;54688;52.376;16.744;2022-10-26T04:40:49;19;17;
67892;PMS7003;54688;52.376;16.744;2022-10-26T04:43:51;12;12;
67892;PMS7003;54688;52.376;16.744;2022-10-26T04:46:53;14;13;
67892;PMS7003;54688;52.376;16.744;2022-10-26T04:49:55;11;10;
67892;PMS7003;54688;52.376;16.744;2022-10-26T04:52:58;13;10;
67892;PMS7003;54688;52.376;16.744;2022-10-26T04:56:00;13;12;
67892;PMS7003;54688;52.376;16.744;2022-10-26T04:59:03;16;13;
67892;PMS7003;54688;52.376;16.744;2022-10-26T05:02:05;19;13;
67892;PMS7003;54688;52.376;16.744;2022-10-26T05:05:08;22;18;
67892;PMS7003;54688;52.376;16.744;2022-10-26T05:08:11;18;15;
67892;PMS7003;54688;52.376;16.744;2022-10-26T05:11:14;19;16;
67892;PMS7003;54688;52.376;16.744;2022-10-26T05:14:16;16;14;
67892;PMS7003;54688;52.376;16.744;2022-10-26T05:17:18;15;14;
67892;PMS7003;54688;52.376;16.744;2022-10-26T05:20:20;20;16;
67892;PMS7003;54688;52.376;16.744;2022-10-26T05:23:23;18;14;
67892;PMS7003;54688;52.376;16.744;2022-10-26T05:26:25;19;16;
67892;PMS7003;54688;52.376;16.744;2022-10-26T05:29:27;19;16;
67892;PMS7003;54688;52.376;16.744;2022-10-26T05:32:29;17;16;
67892;PMS7003;54688;52.376;16.744;2022-10-26T05:35:31;20;17;
67892;PMS7003;54688;52.376;16.744;2022-10-26T05:38:34;20;19;
67892;PMS7003;54688;52.376;16.744;2022-10-26T05:41:36;20;18;
67892;PMS7003;54688;52.376;16.744;2022-10-26T05:44:39;25;24;
67892;PMS7003;54688;52.376;16.744;2022-10-26T05:47:42;29;23;
67892;PMS7003;54688;52.376;16.744;2022-10-26T05:50:44;30;27;
67892;PMS7003;54688;52.376;16.744;2022-10-26T05:53:46;27;23;
67892;PMS7003;54688;52.376;16.744;2022-10-26T05:56:49;20;19;
67892;PMS7003;54688;52.376;16.744;2022-10-26T05:59:52;30;24;
67892;PMS7003;54688;52.376;16.744;2022-10-26T06:03:06;26;21;
67892;PMS7003;54688;52.376;16.744;2022-10-26T06:06:10;23;18;
67892;PMS7003;54688;52.376;16.744;2022-10-26T06:09:14;20;19;
67892;PMS7003;54688;52.376;16.744;2022-10-26T06:12:19;18;15;
67892;PMS7003;54688;52.376;16.744;2022-10-26T06:15:22;24;18;
67892;PMS7003;54688;52.376;16.744;2022-10-26T06:18:32;21;20;
67892;PMS7003;54688;52.376;16.744;2022-10-26T06:21:46;25;23;
67892;PMS7003;54688;52.376;16.744;2022-10-26T06:24:56;27;25;
67892;PMS7003;54688;52.376;16.744;2022-10-26T06:28:10;26;21;
67892;PMS7003;54688;52.376;16.744;2022-10-26T06:31:15;24;22;
67892;PMS7003;54688;52.376;16.744;2022-10-26T06:34:23;23;21;
67892;PMS7003;54688;52.376;16.744;2022-10-26T06:37:27;29;25;
67892;PMS7003;54688;52.376;16.744;2022-10-26T06:40:31;33;25;
67892;PMS7003;54688;52.376;16.744;2022-10-26T06:43:34;26;22;
67892;PMS7003;54688;52.376;16.744;2022-10-26T06:46:40;34;28;
67892;PMS7003;54688;52.376;16.744;2022-10-26T06:49:55;44;35;
67892;PMS7003;54688;52.376;16.744;2022-10-26T06:53:05;38;34;
67892;PMS7003;54688;52.376;16.744;2022-10-26T06:56:10;27;24;
67892;PMS7003;54688;52.376;16.744;2022-10-26T06:59:17;26;25;
67892;PMS7003;54688;52.376;16.744;2022-10-26T07:02:21;42;33;
67892;PMS7003;54688;52.376;16.744;2022-10-26T07:05:23;21;21;
67892;PMS7003;54688;52.376;16.744;2022-10-26T07:08:25;23;21;
67892;PMS7003;54688;52.376;16.744;2022-10-26T07:11:27;23;17;
67892;PMS7003;54688;52.376;16.744;2022-10-26T07:14:30;26;17;
67892;PMS7003;54688;52.376;16.744;2022-10-26T07:17:41;22;18;
67892;PMS7003;54688;52.376;16.744;2022-10-26T07:20:43;16;16;
67892;PMS7003;54688;52.376;16.744;2022-10-26T07:23:45;19;18;
67892;PMS7003;54688;52.376;16.744;2022-10-26T07:26:48;18;17;
67892;PMS7003;54688;52.376;16.744;2022-10-26T07:29:50;19;19;
67892;PMS7003;54688;52.376;16.744;2022-10-26T07:32:57;23;19;
67892;PMS7003;54688;52.376;16.744;2022-10-26T07:36:00;18;17;
67892;PMS7003;54688;52.376;16.744;2022-10-26T07:39:02;23;19;
67892;PMS7003;54688;52.376;16.744;2022-10-26T07:42:04;21;17;
67892;PMS7003;54688;52.376;16.744;2022-10-26T07:45:07;28;24;
67892;PMS7003;54688;52.376;16.744;2022-10-26T07:48:09;20;18;
67892;PMS7003;54688;52.376;16.744;2022-10-26T07:51:11;18;16;
67892;PMS7003;54688;52.376;16.744;2022-10-26T07:54:13;18;13;
67892;PMS7003;54688;52.376;16.744;2022-10-26T07:57:15;21;19;
67892;PMS7003;54688;52.376;16.744;2022-10-26T08:00:17;20;16;
67892;PMS7003;54688;52.376;16.744;2022-10-26T08:03:20;23;22;
67892;PMS7003;54688;52.376;16.744;2022-10-26T08:06:22;27;24;
67892;PMS7003;54688;52.376;16.744;2022-10-26T08:09:24;19;18;
67892;PMS7003;54688;52.376;16.744;2022-10-26T08:12:27;15;14;
67892;PMS7003;54688;52.376;16.744;2022-10-26T08:15:30;41;32;
67892;PMS7003;54688;52.376;16.744;2022-10-26T08:18:32;26;16;
67892;PMS7003;54688;52.376;16.744;2022-10-26T08:21:34;17;15;
67892;PMS7003;54688;52.376;16.744;2022-10-26T08:24:36;16;13;
67892;PMS7003;54688;52.376;16.744;2022-10-26T08:27:38;22;18;
67892;PMS7003;54688;52.376;16.744;2022-10-26T08:30:39;23;21;
67892;PMS7003;54688;52.376;16.744;2022-10-26T08:36:40;23;20;
67892;PMS7003;54688;52.376;16.744;2022-10-26T08:39:42;24;22;
67892;PMS7003;54688;52.376;16.744;2022-10-26T08:42:47;34;29;
67892;PMS7003;54688;52.376;16.744;2022-10-26T08:45:56;25;21;
67892;PMS7003;54688;52.376;16.744;2022-10-26T08:49:02;25;20;
67892;PMS7003;54688;52.376;16.744;2022-10-26T08:52:10;21;20;
67892;PMS7003;54688;52.376;16.744;2022-10-26T08:55:17;25;24;
67892;PMS7003;54688;52.376;16.744;2022-10-26T08:58:24;20;17;
67892;PMS7003;54688;52.376;16.744;2022-10-26T09:01:29;25;19;
67892;PMS7003;54688;52.376;16.744;2022-10-26T09:04:31;21;17;
67892;PMS7003;54688;52.376;16.744;2022-10-26T09:07:42;31;29;
67892;PMS7003;54688;52.376;16.744;2022-10-26T09:10:53;30;24;
67892;PMS7003;54688;52.376;16.744;2022-10-26T09:14:03;33;22;
67892;PMS7003;54688;52.376;16.744;2022-10-26T09:17:17;25;20;
67892;PMS7003;54688;52.376;16.744;2022-10-26T09:20:37;29;23;
67892;PMS7003;54688;52.376;16.744;2022-10-26T09:23:53;22;20;
67892;PMS7003;54688;52.376;16.744;2022-10-26T09:27:01;32;29;
67892;PMS7003;54688;52.376;16.744;2022-10-26T09:30:12;31;26;
67892;PMS7003;54688;52.376;16.744;2022-10-26T09:33:17;24;20;
67892;PMS7003;54688;52.376;16.744;2022-10-26T09:36:21;25;23;
67892;PMS7003;54688;52.376;16.744;2022-10-26T09:39:29;34;28;
67892;PMS7003;54688;52.376;16.744;2022-10-26T09:42:40;28;25;
67892;PMS7003;54688;52.376;16.744;2022-10-26T09:45:45;29;24;
67892;PMS7003;54688;52.376;16.744;2022-10-26T09:48:51;28;27;
67892;PMS7003;54688;52.376;16.744;2022-10-26T09:51:54;25;22;
67892;PMS7003;54688;52.376;16.744;2022-10-26T09:54:56;30;27;
67892;PMS7003;54688;52.376;16.744;2022-10-26T09:58:00;28;24;
67892;PMS7003;54688;52.376;16.744;2022-10-26T10:01:05;34;28;
67892;PMS7003;54688;52.376;16.744;2022-10-26T10:04:14;36;25;
67892;PMS7003;54688;52.376;16.744;2022-10-26T10:07:17;42;32;
67892;PMS7003;54688;52.376;16.744;2022-10-26T10:10:21;32;28;
67892;PMS7003;54688;52.376;16.744;2022-10-26T10:13:24;36;31;
67892;PMS7003;54688;52.376;16.744;2022-10-26T10:16:27;32;30;
67892;PMS7003;54688;52.376;16.744;2022-10-26T10:19:32;44;35;
67892;PMS7003;54688;52.376;16.744;2022-10-26T10:22:34;30;29;
67892;PMS7003;54688;52.376;16.744;2022-10-26T10:25:37;30;25;
67892;PMS7003;54688;52.376;16.744;2022-10-26T10:28:40;38;31;
67892;PMS7003;54688;52.376;16.744;2022-10-26T10:31:54;36;32;
67892;PMS7003;54688;52.376;16.744;2022-10-26T10:34:59;29;26;
67892;PMS7003;54688;52.376;16.744;2022-10-26T10:38:01;36;28;
67892;PMS7003;54688;52.376;16.744;2022-10-26T10:41:03;37;30;
67892;PMS7003;54688;52.376;16.744;2022-10-26T10:44:16;42;34;
67892;PMS7003;54688;52.376;16.744;2022-10-26T10:47:23;32;27;
67892;PMS7003;54688;52.376;16.744;2022-10-26T10:50:26;26;24;
67892;PMS7003;54688;52.376;16.744;2022-10-26T10:56:31;28;26;
67892;PMS7003;54688;52.376;16.744;2022-10-26T10:59:44;30;27;
67892;PMS7003;54688;52.376;16.744;2022-10-26T11:03:27;16;16;
67892;PMS7003;54688;52.376;16.744;2022-10-26T11:06:35;20;17;
67892;PMS7003;54688;52.376;16.744;2022-10-26T11:09:40;14;13;
67892;PMS7003;54688;52.376;16.744;2022-10-26T11:12:49;17;16;
67892;PMS7003;54688;52.376;16.744;2022-10-26T11:15:59;18;15;
67892;PMS7003;54688;52.376;16.744;2022-10-26T11:19:06;16;16;
67892;PMS7003;54688;52.376;16.744;2022-10-26T11:22:13;18;16;
67892;PMS7003;54688;52.376;16.744;2022-10-26T11:25:20;22;15;
67892;PMS7003;54688;52.376;16.744;2022-10-26T11:28:36;15;14;
67892;PMS7003;54688;52.376;16.744;2022-10-26T11:31:43;20;15;
67892;PMS7003;54688;52.376;16.744;2022-10-26T11:34:51;20;16;
67892;PMS7003;54688;52.376;16.744;2022-10-26T11:38:00;17;15;
67892;PMS7003;54688;52.376;16.744;2022-10-26T11:41:10;16;14;
67892;PMS7003;54688;52.376;16.744;2022-10-26T11:44:18;18;18;
67892;PMS7003;54688;52.376;16.744;2022-10-26T11:47:27;16;14;
67892;PMS7003;54688;52.376;16.744;2022-10-26T11:50:33;14;14;
67892;PMS7003;54688;52.376;16.744;2022-10-26T11:53:41;19;18;
67892;PMS7003;54688;52.376;16.744;2022-10-26T11:56:47;11;11;
67892;PMS7003;54688;52.376;16.744;2022-10-26T11:59:52;20;17;
67892;PMS7003;54688;52.376;16.744;2022-10-26T12:03:01;14;14;
67892;PMS7003;54688;52.376;16.744;2022-10-26T12:06:05;18;15;
67892;PMS7003;54688;52.376;16.744;2022-10-26T12:09:12;15;14;
67892;PMS7003;54688;52.376;16.744;2022-10-26T12:12:22;20;16;
67892;PMS7003;54688;52.376;16.744;2022-10-26T12:15:30;15;15;
67892;PMS7003;54688;52.376;16.744;2022-10-26T12:18:40;14;12;
67892;PMS7003;54688;52.376;16.744;2022-10-26T12:21:44;16;12;
67892;PMS7003;54688;52.376;16.744;2022-10-26T12:25:05;13;12;
67892;PMS7003;54688;52.376;16.744;2022-10-26T12:28:37;17;13;
67892;PMS7003;54688;52.376;16.744;2022-10-26T12:31:41;14;11;
67892;PMS7003;54688;52.376;16.744;2022-10-26T12:35:00;13;12;
67892;PMS7003;54688;52.376;16.744;2022-10-26T12:38:54;13;11;
67892;PMS7003;54688;52.376;16.744;2022-10-26T12:42:08;13;13;
67892;PMS7003;54688;52.376;16.744;2022-10-26T12:45:17;15;12;
67892;PMS7003;54688;52.376;16.744;2022-10-26T12:48:21;13;9;
67892;PMS7003;54688;52.376;16.744;2022-10-26T12:51:41;9;9;
67892;PMS7003;54688;52.376;16.744;2022-10-26T12:54:52;14;12;
67892;PMS7003;54688;52.376;16.744;2022-10-26T12:58:07;6;6;
67892;PMS7003;54688;52.376;16.744;2022-10-26T13:01:23;11;9;
67892;PMS7003;54688;52.376;16.744;2022-10-26T13:05:03;13;10;
67892;PMS7003;54688;52.376;16.744;2022-10-26T13:08:10;9;8;
67892;PMS7003;54688;52.376;16.744;2022-10-26T13:11:16;10;9;
67892;PMS7003;54688;52.376;16.744;2022-10-26T13:14:21;6;6;
67892;PMS7003;54688;52.376;16.744;2022-10-26T13:17:26;9;8;
67892;PMS7003;54688;52.376;16.744;2022-10-26T13:20:29;8;6;
67892;PMS7003;54688;52.376;16.744;2022-10-26T13:23:34;6;6;
67892;PMS7003;54688;52.376;16.744;2022-10-26T13:30:40;6;6;
67892;PMS7003;54688;52.376;16.744;2022-10-26T13:33:43;5;5;
67892;PMS7003;54688;52.376;16.744;2022-10-26T13:36:50;7;6;
67892;PMS7003;54688;52.376;16.744;2022-10-26T13:39:54;6;2;
67892;PMS7003;54688;52.376;16.744;2022-10-26T13:42:57;11;9;
67892;PMS7003;54688;52.376;16.744;2022-10-26T13:46:01;11;11;
67892;PMS7003;54688;52.376;16.744;2022-10-26T13:49:07;8;5;
67892;PMS7003;54688;52.376;16.744;2022-10-26T13:52:16;8;8;
67892;PMS7003;54688;52.376;16.744;2022-10-26T13:55:22;9;8;
67892;PMS7003;54688;52.376;16.744;2022-10-26T13:58:29;19;17;
67892;PMS7003;54688;52.376;16.744;2022-10-26T14:04:33;10;9;
67892;PMS7003;54688;52.376;16.744;2022-10-26T14:07:39;19;15;
67892;PMS7003;54688;52.376;16.744;2022-10-26T14:10:45;15;12;
67892;PMS7003;54688;52.376;16.744;2022-10-26T14:13:49;17;14;
67892;PMS7003;54688;52.376;16.744;2022-10-26T14:16:52;10;7;
67892;PMS7003;54688;52.376;16.744;2022-10-26T14:19:55;6;6;
67892;PMS7003;54688;52.376;16.744;2022-10-26T14:22:58;4;4;
67892;PMS7003;54688;52.376;16.744;2022-10-26T14:26:00;6;4;
67892;PMS7003;54688;52.376;16.744;2022-10-26T14:29:14;7;7;
67892;PMS7003;54688;52.376;16.744;2022-10-26T14:32:21;9;8;
67892;PMS7003;54688;52.376;16.744;2022-10-26T14:35:25;8;7;
67892;PMS7003;54688;52.376;16.744;2022-10-26T14:38:31;13;11;
67892;PMS7003;54688;52.376;16.744;2022-10-26T14:41:36;9;8;
67892;PMS7003;54688;52.376;16.744;2022-10-26T14:44:39;7;6;
67892;PMS7003;54688;52.376;16.744;2022-10-26T14:47:43;10;8;
67892;PMS7003;54688;52.376;16.744;2022-10-26T14:50:57;10;10;
67892;PMS7003;54688;52.376;16.744;2022-10-26T14:54:00;7;6;
67892;PMS7003;54688;52.376;16.744;2022-10-26T14:57:03;16;8;
67892;PMS7003;54688;52.376;16.744;2022-10-26T15:00:14;12;8;
67892;PMS7003;54688;52.376;16.744;2022-10-26T15:03:16;7;7;
67892;PMS7003;54688;52.376;16.744;2022-10-26T15:06:28;12;10;
67892;PMS7003;54688;52.376;16.744;2022-10-26T15:09:37;10;7;
67892;PMS7003;54688;52.376;16.744;2022-10-26T15:12:40;11;10;
67892;PMS7003;54688;52.376;16.744;2022-10-26T15:15:42;7;7;
67892;PMS7003;54688;52.376;16.744;2022-10-26T15:18:46;11;11;
67892;PMS7003;54688;52.376;16.744;2022-10-26T15:21:50;12;11;
67892;PMS7003;54688;52.376;16.744;2022-10-26T15:27:52;12;10;
67892;PMS7003;54688;52.376;16.744;2022-10-26T15:30:59;16;14;
67892;PMS7003;54688;52.376;16.744;2022-10-26T15:34:22;20;18;
67892;PMS7003;54688;52.376;16.744;2022-10-26T15:37:24;16;15;
67892;PMS7003;54688;52.376;16.744;2022-10-26T15:40:27;19;18;
67892;PMS7003;54688;52.376;16.744;2022-10-26T15:43:31;28;20;
67892;PMS7003;54688;52.376;16.744;2022-10-26T15:46:35;24;22;
67892;PMS7003;54688;52.376;16.744;2022-10-26T15:49:38;24;23;
67892;PMS7003;54688;52.376;16.744;2022-10-26T15:52:40;24;20;
67892;PMS7003;54688;52.376;16.744;2022-10-26T15:55:43;35;27;
67892;PMS7003;54688;52.376;16.744;2022-10-26T15:58:45;36;29;
67892;PMS7003;54688;52.376;16.744;2022-10-26T16:01:48;30;26;
67892;PMS7003;54688;52.376;16.744;2022-10-26T16:04:50;26;24;
67892;PMS7003;54688;52.376;16.744;2022-10-26T16:07:52;22;21;
67892;PMS7003;54688;52.376;16.744;2022-10-26T16:10:55;27;20;
67892;PMS7003;54688;52.376;16.744;2022-10-26T16:16:57;27;23;
67892;PMS7003;54688;52.376;16.744;2022-10-26T16:19:59;24;18;
67892;PMS7003;54688;52.376;16.744;2022-10-26T16:23:02;27;20;
67892;PMS7003;54688;52.376;16.744;2022-10-26T16:26:04;26;26;
67892;PMS7003;54688;52.376;16.744;2022-10-26T16:29:06;24;22;
67892;PMS7003;54688;52.376;16.744;2022-10-26T16:32:10;23;23;
67892;PMS7003;54688;52.376;16.744;2022-10-26T16:35:12;29;23;
67892;PMS7003;54688;52.376;16.744;2022-10-26T16:38:15;33;25;
67892;PMS7003;54688;52.376;16.744;2022-10-26T16:41:18;47;35;
67892;PMS7003;54688;52.376;16.744;2022-10-26T16:44:20;33;30;
67892;PMS7003;54688;52.376;16.744;2022-10-26T16:47:22;39;31;
67892;PMS7003;54688;52.376;16.744;2022-10-26T16:50:24;37;29;
67892;PMS7003;54688;52.376;16.744;2022-10-26T16:53:26;35;27;
67892;PMS7003;54688;52.376;16.744;2022-10-26T16:56:28;27;25;
67892;PMS7003;54688;52.376;16.744;2022-10-26T16:59:30;35;30;
67892;PMS7003;54688;52.376;16.744;2022-10-26T17:02:32;28;26;
67892;PMS7003;54688;52.376;16.744;2022-10-26T17:05:34;32;29;
67892;PMS7003;54688;52.376;16.744;2022-10-26T17:08:36;39;32;
67892;PMS7003;54688;52.376;16.744;2022-10-26T17:11:38;33;30;
67892;PMS7003;54688;52.376;16.744;2022-10-26T17:14:40;32;29;
67892;PMS7003;54688;52.376;16.744;2022-10-26T17:17:42;42;29;
67892;PMS7003;54688;52.376;16.744;2022-10-26T17:20:48;39;33;
67892;PMS7003;54688;52.376;16.744;2022-10-26T17:23:50;37;29;
67892;PMS7003;54688;52.376;16.744;2022-10-26T17:26:52;46;34;
67892;PMS7003;54688;52.376;16.744;2022-10-26T17:32:55;42;32;
67892;PMS7003;54688;52.376;16.744;2022-10-26T17:35:58;44;30;
67892;PMS7003;54688;52.376;16.744;2022-10-26T17:39:00;41;34;
67892;PMS7003;54688;52.376;16.744;2022-10-26T17:42:03;44;31;
67892;PMS7003;54688;52.376;16.744;2022-10-26T17:45:05;41;33;
67892;PMS7003;54688;52.376;16.744;2022-10-26T17:48:08;46;35;
67892;PMS7003;54688;52.376;16.744;2022-10-26T17:51:11;46;36;
67892;PMS7003;54688;52.376;16.744;2022-10-26T17:54:14;44;35;
67892;PMS7003;54688;52.376;16.744;2022-10-26T17:57:16;46;35;
67892;PMS7003;54688;52.376;16.744;2022-10-26T18:00:19;50;38;
67892;PMS7003;54688;52.376;16.744;2022-10-26T18:03:21;52;39;
67892;PMS7003;54688;52.376;16.744;2022-10-26T18:06:23;44;35;
67892;PMS7003;54688;52.376;16.744;2022-10-26T18:09:25;48;36;
67892;PMS7003;54688;52.376;16.744;2022-10-26T18:12:28;56;38;
67892;PMS7003;54688;52.376;16.744;2022-10-26T18:15:33;49;38;
67892;PMS7003;54688;52.376;16.744;2022-10-26T18:18:36;39;35;
67892;PMS7003;54688;52.376;16.744;2022-10-26T18:21:38;46;36;
67892;PMS7003;54688;52.376;16.744;2022-10-26T18:24:40;44;34;
67892;PMS7003;54688;52.376;16.744;2022-10-26T18:27:42;45;35;
67892;PMS7003;54688;52.376;16.744;2022-10-26T18:30:44;45;35;
67892;PMS7003;54688;52.376;16.744;2022-10-26T18:33:53;48;36;
67892;PMS7003;54688;52.376;16.744;2022-10-26T18:36:55;46;38;
67892;PMS7003;54688;52.376;16.744;2022-10-26T18:39:57;51;39;
67892;PMS7003;54688;52.376;16.744;2022-10-26T18:42:59;45;36;
67892;PMS7003;54688;52.376;16.744;2022-10-26T18:46:03;47;37;
67892;PMS7003;54688;52.376;16.744;2022-10-26T18:49:05;43;36;
67892;PMS7003;54688;52.376;16.744;2022-10-26T18:52:08;45;36;
67892;PMS7003;54688;52.376;16.744;2022-10-26T18:55:09;50;37;
67892;PMS7003;54688;52.376;16.744;2022-10-26T18:58:12;52;39;
67892;PMS7003;54688;52.376;16.744;2022-10-26T19:01:15;45;35;
67892;PMS7003;54688;52.376;16.744;2022-10-26T19:04:18;43;34;
67892;PMS7003;54688;52.376;16.744;2022-10-26T19:07:20;49;39;
67892;PMS7003;54688;52.376;16.744;2022-10-26T19:10:22;44;35;
67892;PMS7003;54688;52.376;16.744;2022-10-26T19:13:24;49;39;
67892;PMS7003;54688;52.376;16.744;2022-10-26T19:16:28;47;39;
67892;PMS7003;54688;52.376;16.744;2022-10-26T19:19:30;46;36;
67892;PMS7003;54688;52.376;16.744;2022-10-26T19:22:32;43;34;
67892;PMS7003;54688;52.376;16.744;2022-10-26T19:25:34;43;35;
67892;PMS7003;54688;52.376;16.744;2022-10-26T19:28:37;48;36;
67892;PMS7003;54688;52.376;16.744;2022-10-26T19:31:39;47;37;
67892;PMS7003;54688;52.376;16.744;2022-10-26T19:34:43;50;36;
67892;PMS7003;54688;52.376;16.744;2022-10-26T19:37:45;44;36;
67892;PMS7003;54688;52.376;16.744;2022-10-26T19:40:55;47;36;
67892;PMS7003;54688;52.376;16.744;2022-10-26T19:43:57;46;36;
67892;PMS7003;54688;52.376;16.744;2022-10-26T19:46:59;41;35;
67892;PMS7003;54688;52.376;16.744;2022-10-26T19:50:03;47;39;
67892;PMS7003;54688;52.376;16.744;2022-10-26T19:53:05;49;37;
67892;PMS7003;54688;52.376;16.744;2022-10-26T19:56:08;50;39;
67892;PMS7003;54688;52.376;16.744;2022-10-26T19:59:11;43;35;
67892;PMS7003;54688;52.376;16.744;2022-10-26T20:02:12;47;39;
67892;PMS7003;54688;52.376;16.744;2022-10-26T20:05:14;45;35;
67892;PMS7003;54688;52.376;16.744;2022-10-26T20:08:16;49;39;
67892;PMS7003;54688;52.376;16.744;2022-10-26T20:11:18;49;37;
67892;PMS7003;54688;52.376;16.744;2022-10-26T20:14:20;51;38;
67892;PMS7003;54688;52.376;16.744;2022-10-26T20:17:22;43;36;
67892;PMS7003;54688;52.376;16.744;2022-10-26T20:20:24;50;37;
67892;PMS7003;54688;52.376;16.744;2022-10-26T20:23:26;53;40;
67892;PMS7003;54688;52.376;16.744;2022-10-26T20:26:28;55;41;
67892;PMS7003;54688;52.376;16.744;2022-10-26T20:29:30;56;42;
67892;PMS7003;54688;52.376;16.744;2022-10-26T20:32:32;64;46;
67892;PMS7003;54688;52.376;16.744;2022-10-26T20:35:36;55;43;
67892;PMS7003;54688;52.376;16.744;2022-10-26T20:38:40;53;42;
67892;PMS7003;54688;52.376;16.744;2022-10-26T20:41:43;51;40;